createdAt,value
2017-12-22T00:00:26.500Z,9.10
2017-12-22T00:01:26.554Z,9.08
2017-12-22T00:02:26.501Z,9.14
2017-12-22T00:03:26.641Z,9.08
2017-12-22T00:04:26.518Z,9.10
2017-12-22T00:05:26.618Z,9.10
2017-12-22T00:06:26.551Z,9.03
2017-12-22T00:07:27.551Z,9.03
2017-12-22T00:08:26.520Z,9.08
2017-12-22T00:09:26.553Z,9.13
2017-12-22T00:10:26.527Z,9.06
2017-12-22T00:11:28.626Z,9.06
2017-12-22T00:12:26.540Z,9.06
2017-12-22T00:13:27.593Z,9.08
2017-12-22T00:14:26.537Z,9.11
2017-12-22T00:15:26.587Z,9.14
2017-12-22T00:16:26.534Z,9.13
2017-12-22T00:17:27.628Z,9.11
2017-12-22T00:18:26.578Z,9.06
2017-12-22T00:19:26.542Z,9.14
2017-12-22T00:20:28.670Z,9.08
2017-12-22T00:21:26.559Z,9.02
2017-12-22T00:22:27.624Z,9.10
2017-12-22T00:23:26.571Z,9.11
2017-12-22T00:24:26.572Z,9.10
2017-12-22T00:25:26.566Z,9.02
2017-12-22T00:26:26.575Z,9.00
2017-12-22T00:27:26.579Z,9.04
2017-12-22T00:28:26.584Z,8.97
2017-12-22T00:29:26.646Z,9.08
2017-12-22T00:30:26.598Z,9.06
2017-12-22T00:31:26.675Z,9.11
2017-12-22T00:32:26.601Z,9.03
2017-12-22T00:33:26.692Z,9.03
2017-12-22T00:34:26.600Z,9.06
2017-12-22T00:35:38.419Z,9.06
2017-12-22T00:36:26.605Z,9.02
2017-12-22T00:37:27.640Z,9.04
2017-12-22T00:38:26.608Z,9.06
2017-12-22T00:39:28.690Z,8.97
2017-12-22T00:40:26.623Z,9.06
2017-12-22T00:41:26.653Z,9.06
2017-12-22T00:42:26.628Z,8.97
2017-12-22T00:43:26.622Z,9.02
2017-12-22T00:44:27.687Z,9.08
2017-12-22T00:45:26.630Z,9.04
2017-12-22T00:46:26.625Z,9.03
2017-12-22T00:47:26.752Z,9.08
2017-12-22T00:48:26.639Z,9.02
2017-12-22T00:49:27.716Z,9.03
2017-12-22T00:50:26.640Z,9.00
2017-12-22T00:51:26.727Z,9.04
2017-12-22T00:52:26.652Z,9.02
2017-12-22T00:53:32.461Z,9.10
2017-12-22T00:54:26.669Z,8.94
2017-12-22T01:09:51.751Z,8.97
2017-12-22T01:10:37.872Z,8.99
2017-12-22T01:11:37.790Z,9.00
2017-12-22T01:12:37.886Z,8.99
2017-12-22T01:13:37.799Z,8.94
2017-12-22T01:14:39.828Z,9.00
2017-12-22T01:15:37.795Z,8.95
2017-12-22T01:16:37.920Z,8.97
2017-12-22T01:17:37.812Z,8.97
2017-12-22T01:18:43.762Z,8.95
2017-12-22T01:19:37.815Z,8.92
2017-12-22T01:20:39.869Z,8.95
2017-12-22T01:21:37.812Z,8.88
2017-12-22T01:22:42.777Z,8.91
2017-12-22T01:23:37.833Z,8.95
2017-12-22T01:24:37.858Z,8.97
2017-12-22T01:25:37.844Z,8.89
2017-12-22T01:26:37.897Z,8.92
2017-12-22T01:27:37.827Z,8.95
2017-12-22T01:28:38.914Z,8.94
2017-12-22T01:29:37.860Z,8.91
2017-12-22T01:30:37.886Z,8.88
2017-12-22T01:31:37.853Z,8.91
2017-12-22T01:32:39.957Z,8.92
2017-12-22T01:33:37.856Z,8.91
2017-12-22T01:34:37.925Z,8.89
2017-12-22T01:35:37.851Z,8.87
2017-12-22T01:36:38.961Z,8.88
2017-12-22T01:37:37.895Z,8.97
2017-12-22T01:38:37.953Z,8.97
2017-12-22T01:39:37.868Z,8.89
2017-12-22T01:40:37.953Z,8.94
2017-12-22T01:41:37.878Z,8.97
2017-12-22T01:42:37.880Z,8.92
2017-12-22T01:43:37.896Z,8.92
2017-12-22T01:44:37.992Z,8.94
2017-12-22T01:45:37.884Z,8.92
2017-12-22T01:46:42.717Z,8.95
2017-12-22T01:47:37.910Z,8.87
2017-12-22T01:48:37.894Z,8.92
2017-12-22T01:49:38.964Z,8.91
2017-12-22T01:50:37.904Z,8.91
2017-12-22T01:51:37.929Z,8.91
2017-12-22T01:52:37.914Z,8.97
2017-12-22T01:53:37.926Z,8.95
2017-12-22T01:54:37.963Z,8.88
2017-12-22T01:55:37.914Z,8.92
2017-12-22T01:56:37.969Z,8.85
2017-12-22T01:57:37.922Z,8.87
2017-12-22T01:58:38.058Z,8.89
2017-12-22T01:59:37.935Z,8.84
2017-12-22T02:00:38.006Z,8.84
2017-12-22T02:01:37.940Z,8.89
2017-12-22T02:02:40.093Z,8.85
2017-12-22T02:03:37.955Z,8.84
2017-12-22T02:04:39.969Z,8.84
2017-12-22T02:05:37.944Z,8.84
2017-12-22T02:06:39.978Z,8.89
2017-12-22T02:07:37.948Z,8.91
2017-12-22T02:08:38.976Z,8.92
2017-12-22T02:09:37.987Z,8.82
2017-12-22T02:10:37.964Z,8.87
2017-12-22T02:11:38.076Z,8.87
2017-12-22T02:12:37.957Z,8.87
2017-12-22T02:13:37.992Z,8.88
2017-12-22T02:14:37.971Z,8.85
2017-12-22T02:15:40.046Z,8.87
2017-12-22T02:16:37.971Z,8.84
2017-12-22T02:17:38.019Z,8.85
2017-12-22T02:18:38.008Z,8.76
2017-12-22T02:19:39.039Z,8.82
2017-12-22T02:20:38.012Z,8.84
2017-12-22T02:21:38.028Z,8.84
2017-12-22T02:22:38.013Z,8.91
2017-12-22T02:23:38.049Z,8.85
2017-12-22T02:24:38.000Z,8.82
2017-12-22T02:25:38.061Z,8.84
2017-12-22T02:26:38.000Z,8.85
2017-12-22T02:27:40.123Z,8.82
2017-12-22T02:28:38.007Z,8.85
2017-12-22T02:29:40.040Z,8.81
2017-12-22T02:30:38.065Z,8.85
2017-12-22T02:31:40.055Z,8.85
2017-12-22T02:32:38.032Z,8.88
2017-12-22T02:33:38.040Z,8.84
2017-12-22T02:34:38.071Z,8.84
2017-12-22T02:35:38.045Z,8.89
2017-12-22T02:36:38.041Z,8.89
2017-12-22T02:37:38.046Z,8.84
2017-12-22T02:38:38.156Z,8.78
2017-12-22T02:39:38.053Z,8.81
2017-12-22T02:40:39.128Z,8.81
2017-12-22T02:41:38.060Z,8.82
2017-12-22T02:42:38.058Z,8.87
2017-12-22T02:43:38.069Z,8.82
2017-12-22T02:44:38.071Z,8.78
2017-12-22T02:45:38.116Z,8.88
2017-12-22T02:46:38.063Z,8.82
2017-12-22T02:47:38.109Z,8.79
2017-12-22T02:48:38.076Z,8.78
2017-12-22T02:49:38.133Z,8.81
2017-12-22T02:50:38.075Z,8.78
2017-12-22T02:51:38.163Z,8.74
2017-12-22T02:52:38.078Z,8.76
2017-12-22T02:53:38.082Z,8.84
2017-12-22T02:54:38.093Z,8.82
2017-12-22T02:55:38.095Z,8.74
2017-12-22T02:56:38.170Z,8.84
2017-12-22T02:57:38.110Z,8.76
2017-12-22T02:58:43.725Z,8.84
2017-12-22T02:59:38.133Z,8.74
2017-12-22T03:00:38.198Z,8.76
2017-12-22T03:01:38.137Z,8.74
2017-12-22T03:02:38.245Z,8.74
2017-12-22T03:03:38.126Z,8.71
2017-12-22T03:04:40.181Z,8.78
2017-12-22T03:05:38.133Z,8.71
2017-12-22T03:06:40.183Z,8.71
2017-12-22T03:07:38.127Z,8.79
2017-12-22T03:08:40.208Z,8.74
2017-12-22T03:09:38.130Z,8.84
2017-12-22T03:10:38.158Z,8.76
2017-12-22T03:11:38.200Z,8.79
2017-12-22T03:12:42.815Z,8.81
2017-12-22T03:13:38.141Z,8.74
2017-12-22T06:22:04.345Z,8.49
2017-12-22T06:26:34.179Z,8.61
2017-12-22T06:27:33.050Z,8.49
2017-12-22T06:28:38.850Z,8.48
2017-12-22T06:29:33.095Z,8.51
2017-12-22T06:30:34.148Z,8.49
2017-12-22T06:31:33.068Z,8.56
2017-12-22T06:32:35.232Z,8.48
2017-12-22T06:33:33.060Z,8.51
2017-12-22T06:34:43.857Z,8.49
2017-12-22T06:35:33.134Z,8.52
2017-12-22T06:36:33.157Z,8.55
2017-12-22T06:37:33.104Z,8.51
2017-12-22T06:38:33.177Z,8.51
2017-12-22T06:39:33.116Z,8.53
2017-12-22T06:40:44.860Z,8.49
2017-12-22T06:41:33.081Z,8.52
2017-12-22T06:42:34.138Z,8.60
2017-12-22T06:43:33.091Z,8.49
2017-12-22T06:44:33.249Z,8.51
2017-12-22T06:45:33.093Z,8.49
2017-12-22T06:46:34.163Z,8.55
2017-12-22T06:47:33.096Z,8.52
2017-12-22T06:48:33.133Z,8.52
2017-12-22T06:49:33.120Z,8.49
2017-12-22T06:50:37.931Z,8.55
2017-12-22T06:51:33.105Z,8.49
2017-12-22T06:52:33.139Z,8.52
2017-12-22T06:53:33.118Z,8.56
2017-12-22T06:54:33.115Z,8.51
2017-12-22T06:55:35.223Z,8.58
2017-12-22T06:56:33.121Z,8.56
2017-12-22T06:57:33.186Z,8.56
2017-12-22T06:58:33.147Z,8.52
2017-12-22T06:59:34.208Z,8.48
2017-12-22T07:00:33.129Z,8.55
2017-12-22T07:01:35.248Z,8.49
2017-12-22T07:02:33.146Z,8.51
2017-12-22T07:03:33.226Z,8.55
2017-12-22T07:04:33.152Z,8.51
2017-12-22T07:05:33.143Z,8.52
2017-12-22T07:06:33.251Z,8.48
2017-12-22T07:07:33.162Z,8.51
2017-12-22T07:08:37.861Z,8.55
2017-12-22T07:09:33.161Z,8.49
2017-12-22T07:10:33.278Z,8.51
2017-12-22T07:11:33.167Z,8.55
2017-12-22T07:12:33.154Z,8.49
2017-12-22T07:13:35.235Z,8.53
2017-12-22T07:14:33.170Z,8.53
2017-12-22T07:15:33.197Z,8.53
2017-12-22T07:16:33.178Z,8.51
2017-12-22T07:17:34.293Z,8.53
2017-12-22T07:18:33.174Z,8.51
2017-12-22T07:19:37.891Z,8.52
2017-12-22T07:20:33.195Z,8.51
2017-12-22T07:21:33.249Z,8.51
2017-12-22T07:22:33.188Z,8.52
2017-12-22T07:23:37.868Z,8.51
2017-12-22T07:24:33.209Z,8.55
2017-12-22T07:25:38.998Z,8.53
2017-12-22T07:26:33.200Z,8.53
2017-12-22T07:27:33.277Z,8.51
2017-12-22T07:28:33.196Z,8.48
2017-12-22T07:29:33.210Z,8.49
2017-12-22T07:30:33.213Z,8.48
2017-12-22T07:31:33.212Z,8.49
2017-12-22T07:32:33.319Z,8.51
2017-12-22T07:33:33.224Z,8.51
2017-12-22T07:34:33.317Z,8.49
2017-12-22T07:35:33.246Z,8.53
2017-12-22T07:36:33.289Z,8.51
2017-12-22T07:37:33.238Z,8.52
2017-12-22T07:38:33.311Z,8.46
2017-12-22T07:39:33.247Z,8.51
2017-12-22T07:40:33.293Z,8.53
2017-12-22T07:41:33.321Z,8.49
2017-12-22T07:42:33.249Z,8.51
2017-12-22T07:43:33.337Z,8.49
2017-12-22T07:44:33.244Z,8.49
2017-12-22T07:45:35.297Z,8.49
2017-12-22T07:46:33.254Z,8.51
2017-12-22T07:47:33.367Z,8.52
2017-12-22T07:48:33.265Z,8.49
2017-12-22T07:49:34.302Z,8.48
2017-12-22T07:50:33.259Z,8.55
2017-12-22T07:51:35.341Z,8.48
2017-12-22T07:52:33.266Z,8.51
2017-12-22T07:53:33.399Z,8.48
2017-12-22T07:54:33.273Z,8.49
2017-12-22T07:55:37.821Z,8.52
2017-12-22T07:56:33.317Z,8.56
2017-12-22T07:57:34.348Z,8.49
2017-12-22T07:58:33.288Z,8.51
2017-12-22T07:59:33.346Z,8.52
2017-12-22T08:00:33.307Z,8.52
2017-12-22T08:01:34.388Z,8.51
2017-12-22T08:02:33.318Z,8.52
2017-12-22T08:03:34.384Z,8.52
2017-12-22T08:04:33.308Z,8.52
2017-12-22T08:05:33.381Z,8.51
2017-12-22T08:06:33.304Z,8.52
2017-12-22T08:07:33.392Z,8.48
2017-12-22T08:08:34.624Z,8.49
2017-12-22T08:09:34.326Z,8.49
2017-12-22T08:10:33.320Z,8.66
2017-12-22T08:11:33.313Z,8.70
2017-12-22T08:12:33.311Z,8.69
2017-12-22T08:13:33.434Z,8.67
2017-12-22T08:14:33.325Z,8.64
2017-12-22T08:15:33.355Z,8.67
2017-12-22T08:16:33.349Z,8.66
2017-12-22T08:17:34.389Z,8.61
2017-12-22T08:18:33.359Z,8.61
2017-12-22T08:19:33.368Z,8.61
2017-12-22T08:20:33.369Z,8.51
2017-12-22T08:21:35.440Z,8.49
2017-12-22T08:22:33.337Z,8.55
2017-12-22T08:23:33.355Z,8.55
2017-12-22T08:24:34.437Z,8.51
2017-12-22T08:25:33.358Z,8.51
2017-12-22T08:26:33.413Z,8.49
2017-12-22T08:27:33.389Z,8.52
2017-12-22T08:28:35.381Z,8.49
2017-12-22T08:29:33.363Z,8.53
2017-12-22T08:30:33.457Z,8.58
2017-12-22T08:31:33.364Z,8.55
2017-12-22T08:32:35.404Z,8.53
2017-12-22T08:33:33.375Z,8.49
2017-12-22T08:34:33.470Z,8.53
2017-12-22T08:35:33.377Z,8.58
2017-12-22T08:36:34.405Z,8.53
2017-12-22T08:37:33.401Z,8.51
2017-12-22T08:38:33.395Z,8.49
2017-12-22T08:39:33.408Z,8.52
2017-12-22T08:40:34.441Z,8.52
2017-12-22T08:41:33.389Z,8.53
2017-12-22T08:42:33.428Z,8.49
2017-12-22T08:43:33.414Z,8.52
2017-12-22T08:44:33.442Z,8.49
2017-12-22T08:45:33.408Z,8.48
2017-12-22T08:46:33.471Z,8.52
2017-12-22T08:47:33.403Z,8.53
2017-12-22T08:48:33.475Z,8.52
2017-12-22T08:49:33.421Z,8.49
2017-12-22T08:50:34.513Z,8.46
2017-12-22T08:51:33.423Z,8.48
2017-12-22T08:52:33.498Z,8.52
2017-12-22T08:53:33.428Z,8.55
2017-12-22T08:54:34.543Z,8.52
2017-12-22T08:55:33.454Z,8.49
2017-12-22T08:56:33.519Z,8.52
2017-12-22T08:57:33.444Z,8.48
2017-12-22T08:58:33.541Z,8.49
2017-12-22T08:59:33.439Z,8.49
2017-12-22T09:00:34.464Z,8.48
2017-12-22T09:01:33.446Z,8.53
2017-12-22T09:02:33.448Z,8.53
2017-12-22T09:03:33.461Z,8.49
2017-12-22T09:04:33.466Z,8.55
2017-12-22T09:05:34.512Z,8.52
2017-12-22T09:06:33.463Z,8.51
2017-12-22T09:07:35.577Z,8.48
2017-12-22T09:08:33.483Z,8.51
2017-12-22T09:09:33.478Z,8.49
2017-12-22T09:10:34.533Z,8.49
2017-12-22T09:11:33.477Z,8.51
2017-12-22T09:12:33.526Z,8.51
2017-12-22T09:13:33.483Z,8.56
2017-12-22T09:14:45.403Z,8.53
2017-12-22T09:15:33.489Z,8.53
2017-12-22T09:16:34.562Z,8.51
2017-12-22T09:17:33.500Z,8.55
2017-12-22T09:18:38.381Z,8.52
2017-12-22T09:19:33.508Z,8.55
2017-12-22T09:20:50.364Z,8.55
2017-12-22T09:21:33.518Z,8.56
2017-12-22T09:22:44.320Z,8.60
2017-12-22T09:23:33.522Z,8.53
2017-12-22T09:25:07.397Z,8.56
2017-12-22T09:25:33.529Z,8.55
2017-12-22T09:26:33.541Z,8.51
2017-12-22T09:27:39.356Z,8.56
2017-12-22T09:28:33.516Z,8.55
2017-12-22T09:29:55.698Z,8.49
2017-12-22T09:30:33.532Z,8.51
2017-12-22T10:04:15.453Z,8.52
2017-12-22T10:05:09.764Z,8.51
2017-12-22T10:06:30.799Z,8.53
2017-12-22T10:07:09.786Z,8.51
2017-12-22T10:08:22.802Z,8.46
2017-12-22T10:09:09.794Z,8.48
2017-12-22T11:08:34.938Z,8.63
2017-12-22T11:09:34.948Z,8.64
2017-12-22T11:10:34.932Z,8.74
2017-12-22T11:11:40.710Z,8.69
2017-12-22T11:12:34.914Z,8.66
2017-12-22T11:13:39.809Z,8.67
2017-12-22T11:14:34.913Z,8.70
2017-12-22T11:15:40.716Z,8.66
2017-12-22T11:16:34.955Z,8.71
2017-12-22T11:17:35.000Z,8.64
2017-12-22T11:18:34.970Z,8.73
2017-12-22T11:19:35.016Z,8.64
2017-12-22T11:20:34.941Z,8.73
2017-12-22T11:21:35.048Z,8.67
2017-12-22T11:22:34.953Z,8.64
2017-12-22T11:23:35.005Z,8.67
2017-12-22T11:24:34.948Z,8.64
2017-12-22T11:25:34.950Z,8.70
2017-12-22T11:26:36.052Z,8.71
2017-12-22T11:27:34.998Z,8.69
2017-12-22T11:28:50.793Z,8.69
2017-12-22T11:29:34.974Z,8.67
2017-12-22T11:53:45.753Z,8.73
2017-12-22T11:54:42.984Z,8.69
2017-12-22T11:55:42.896Z,8.67
2017-12-22T11:56:42.988Z,8.71
2017-12-22T11:57:42.891Z,8.67
2017-12-22T11:58:43.927Z,8.79
2017-12-22T11:59:42.894Z,8.78
2017-12-22T12:00:47.813Z,8.76
2017-12-22T12:01:42.898Z,8.67
2017-12-22T12:02:43.950Z,8.69
2017-12-22T12:03:42.900Z,8.66
2017-12-22T12:04:44.972Z,8.82
2017-12-22T12:05:42.928Z,8.66
2017-12-22T12:06:48.773Z,8.66
2017-12-22T12:07:42.924Z,8.67
2017-12-22T12:08:42.976Z,8.76
2017-12-22T12:09:42.919Z,8.71
2017-12-22T12:10:42.976Z,8.67
2017-12-22T12:11:42.920Z,8.78
2017-12-22T12:12:44.015Z,8.66
2017-12-22T12:13:42.934Z,8.69
2017-12-22T12:14:43.008Z,8.63
2017-12-22T12:15:42.928Z,8.78
2017-12-22T12:16:49.782Z,8.69
2017-12-22T12:17:42.935Z,8.79
2017-12-22T12:18:44.054Z,8.78
2017-12-22T12:19:42.947Z,8.78
2017-12-22T12:20:43.042Z,8.78
2017-12-22T12:21:42.963Z,8.79
2017-12-22T12:22:43.992Z,8.79
2017-12-22T12:23:42.976Z,8.78
2017-12-22T12:24:57.793Z,8.76
2017-12-22T12:25:42.972Z,8.82
2017-12-22T12:56:17.490Z,8.85
2017-12-22T12:56:54.971Z,8.78
2017-12-22T12:58:07.515Z,8.82
2017-12-22T12:58:54.985Z,8.81
2017-12-22T13:08:30.949Z,8.81
2017-12-22T13:09:22.121Z,8.92
2017-12-22T13:10:22.063Z,8.92
2017-12-22T13:11:22.090Z,8.91
2017-12-22T13:12:23.165Z,8.94
2017-12-22T13:13:22.071Z,8.91
2017-12-22T13:14:23.166Z,8.92
2017-12-22T13:15:22.083Z,8.89
2017-12-22T13:16:23.179Z,8.88
2017-12-22T13:17:22.090Z,8.92
2017-12-22T13:18:22.181Z,8.94
2017-12-22T13:19:22.101Z,8.92
2017-12-22T13:20:24.135Z,8.88
2017-12-22T13:21:22.126Z,9.03
2017-12-22T13:22:34.962Z,8.89
2017-12-22T13:23:22.158Z,8.89
2017-12-22T13:29:24.829Z,9.04
2017-12-22T13:30:22.701Z,8.97
2017-12-22T13:31:38.507Z,8.97
2017-12-22T13:32:22.719Z,8.99
2017-12-22T13:33:24.788Z,8.97
2017-12-22T13:34:22.729Z,9.00
2017-12-22T13:35:23.773Z,8.91
2017-12-22T13:36:22.720Z,9.02
2017-12-22T13:37:23.859Z,8.95
2017-12-22T13:38:22.738Z,8.92
2017-12-22T13:39:51.555Z,8.95
2017-12-22T13:40:22.779Z,8.99
2017-12-22T13:41:22.743Z,8.92
2017-12-22T13:42:23.842Z,8.89
2017-12-22T13:43:22.807Z,9.04
2017-12-22T13:44:55.486Z,8.97
2017-12-22T13:45:22.923Z,9.02
2017-12-22T13:46:22.924Z,8.97
2017-12-22T13:47:27.496Z,8.97
2017-12-22T13:48:22.762Z,9.00
2017-12-22T13:49:24.856Z,9.02
2017-12-22T13:50:22.768Z,9.00
2017-12-22T13:51:27.522Z,8.99
2017-12-22T13:52:22.795Z,8.95
2017-12-22T13:53:22.833Z,9.02
2017-12-22T13:54:22.786Z,8.94
2017-12-22T13:55:24.891Z,8.99
2017-12-22T13:56:22.814Z,8.94
2017-12-22T13:57:22.865Z,8.99
2017-12-22T13:58:22.788Z,8.97
2017-12-22T13:59:23.890Z,9.02
2017-12-22T14:00:22.810Z,8.95
2017-12-22T14:01:43.829Z,9.00
2017-12-22T14:02:22.855Z,8.97
2017-12-22T14:03:27.530Z,8.94
2017-12-22T14:04:22.825Z,9.00
2017-12-22T14:05:24.879Z,8.97
2017-12-22T14:06:22.821Z,9.02
2017-12-22T14:07:34.499Z,8.99
2017-12-22T14:08:22.834Z,9.03
2017-12-22T14:09:33.504Z,8.97
2017-12-22T14:10:22.855Z,8.99
2017-12-22T14:11:27.561Z,8.97
2017-12-22T14:12:22.859Z,9.04
2017-12-22T14:13:33.510Z,8.97
2017-12-22T14:14:22.851Z,9.00
2017-12-22T14:15:29.510Z,9.02
2017-12-22T14:16:22.878Z,8.95
2017-12-22T14:17:22.963Z,9.03
2017-12-22T14:18:22.853Z,9.02
2017-12-22T14:19:22.847Z,8.99
2017-12-22T14:20:22.853Z,8.94
2017-12-22T14:21:22.854Z,9.02
2017-12-22T14:22:22.878Z,8.99
2017-12-22T14:23:22.869Z,8.99
2017-12-22T14:24:22.921Z,8.87
2017-12-22T14:25:22.876Z,8.99
2017-12-22T14:26:22.937Z,9.03
2017-12-22T14:27:22.876Z,8.97
2017-12-22T14:28:22.948Z,9.00
2017-12-22T14:29:22.891Z,9.00
2017-12-22T14:30:22.961Z,8.99
2017-12-22T14:31:22.889Z,8.95
2017-12-22T14:32:22.976Z,8.95
2017-12-22T14:33:22.998Z,9.04
2017-12-22T14:34:22.979Z,8.99
2017-12-22T14:35:22.915Z,8.99
2017-12-22T14:36:22.999Z,8.99
2017-12-22T14:37:22.922Z,9.02
2017-12-22T14:38:23.024Z,8.92
2017-12-22T14:39:22.916Z,9.00
2017-12-22T14:40:23.015Z,8.95
2017-12-22T14:41:22.962Z,8.99
2017-12-22T14:42:35.514Z,8.99
2017-12-22T14:43:23.029Z,8.99
2017-12-22T14:57:03.538Z,9.02
2017-12-22T14:58:03.514Z,8.89
2017-12-22T14:59:03.516Z,8.94
2017-12-22T15:00:03.531Z,8.94
2017-12-22T15:01:03.506Z,8.88
2017-12-22T15:02:03.532Z,8.94
2017-12-22T15:03:03.514Z,8.88
2017-12-22T15:04:03.584Z,8.97
2017-12-22T15:05:03.535Z,9.00
2017-12-22T15:06:03.668Z,8.97
2017-12-22T15:07:03.536Z,8.99
2017-12-22T15:08:04.596Z,8.99
2017-12-22T15:09:03.539Z,9.00
2017-12-22T15:10:03.590Z,8.92
2017-12-22T15:11:03.533Z,8.89
2017-12-22T15:12:03.605Z,8.97
2017-12-22T15:13:03.543Z,8.89
2017-12-22T15:14:03.572Z,8.95
2017-12-22T15:15:03.625Z,9.02
2017-12-22T15:16:03.552Z,8.91
2017-12-22T15:17:03.670Z,8.95
2017-12-22T15:18:03.551Z,8.99
2017-12-22T15:19:04.686Z,8.94
2017-12-22T15:20:03.566Z,9.03
2017-12-22T15:21:03.669Z,8.91
2017-12-22T15:22:03.572Z,9.00
2017-12-22T15:23:03.700Z,8.97
2017-12-22T15:24:03.583Z,8.95
2017-12-22T15:25:03.699Z,8.97
2017-12-22T15:26:03.620Z,8.99
2017-12-22T15:27:03.610Z,8.91
2017-12-22T15:28:03.590Z,8.95
2017-12-22T15:29:04.659Z,8.92
2017-12-22T15:30:03.608Z,8.97
2017-12-22T15:31:03.620Z,8.95
2017-12-22T15:32:03.605Z,8.91
2017-12-22T15:33:03.622Z,8.97
2017-12-22T15:34:03.620Z,8.88
2017-12-22T15:35:03.644Z,8.97
2017-12-22T15:36:03.617Z,8.89
2017-12-22T15:37:03.679Z,9.00
2017-12-22T15:38:03.622Z,8.91
2017-12-22T15:39:03.676Z,9.03
2017-12-22T15:40:03.617Z,8.97
2017-12-22T15:41:03.681Z,8.89
2017-12-22T15:42:03.628Z,9.00
2017-12-22T15:43:03.695Z,8.91
2017-12-22T15:44:03.635Z,8.92
2017-12-22T15:45:03.722Z,8.99
2017-12-22T15:46:03.636Z,8.94
2017-12-22T15:47:04.746Z,8.89
2017-12-22T15:48:03.647Z,8.94
2017-12-22T15:49:03.663Z,8.94
2017-12-22T15:50:03.750Z,8.89
2017-12-22T15:51:03.653Z,8.92
2017-12-22T15:52:14.303Z,8.92
2017-12-22T15:53:03.676Z,8.91
2017-12-22T15:54:08.282Z,8.92
2017-12-22T15:55:03.684Z,8.97
2017-12-22T15:56:16.280Z,8.91
2017-12-22T15:57:03.687Z,8.91
2017-12-22T15:58:03.817Z,8.88
2017-12-22T15:59:03.684Z,9.00
2017-12-22T16:00:19.279Z,8.87
2017-12-22T16:01:03.688Z,8.94
2017-12-22T16:02:04.779Z,8.89
2017-12-22T16:03:03.700Z,8.92
2017-12-22T16:04:04.785Z,8.91
2017-12-22T16:05:03.776Z,8.89
2017-12-22T16:06:03.779Z,8.94
2017-12-22T16:07:03.703Z,8.89
2017-12-22T16:08:03.726Z,8.88
2017-12-22T16:09:18.400Z,8.89
2017-12-22T16:10:03.735Z,9.03
2017-12-22T16:11:18.303Z,8.92
2017-12-22T16:12:03.717Z,8.89
2017-12-22T16:13:16.376Z,8.89
2017-12-22T16:14:03.758Z,8.94
2017-12-22T16:15:18.333Z,8.92
2017-12-22T16:16:03.799Z,8.88
2017-12-22T16:17:33.866Z,8.89
2017-12-22T16:18:03.898Z,8.89
2017-12-22T16:19:03.809Z,8.92
2017-12-22T16:20:19.805Z,8.92
2017-12-22T16:21:03.762Z,8.92
2017-12-22T16:22:33.886Z,8.89
2017-12-22T16:23:04.096Z,8.89
2017-12-22T16:24:39.803Z,8.91
2017-12-22T16:25:03.772Z,8.94
2017-12-22T16:43:20.077Z,8.91
2017-12-22T17:49:21.023Z,19.37
2017-12-22T17:50:21.022Z,19.82
2017-12-22T18:28:12.257Z,10.23
2017-12-22T18:29:12.301Z,9.98
2017-12-22T18:31:12.575Z,9.97
2017-12-22T18:32:08.082Z,9.87
2017-12-22T18:33:10.146Z,9.82
2017-12-22T18:34:08.083Z,9.73
2017-12-22T18:35:23.997Z,9.65
2017-12-22T18:36:08.095Z,9.56
2017-12-22T18:37:10.177Z,9.50
2017-12-22T18:38:08.094Z,9.46
2017-12-22T18:39:29.104Z,9.40
2017-12-22T18:40:08.098Z,9.39
2017-12-22T18:41:19.006Z,9.34
2017-12-22T18:42:08.145Z,9.31
2017-12-22T18:43:09.219Z,9.28
2017-12-22T18:44:08.104Z,9.26
2017-12-22T19:39:33.723Z,9.00
2017-12-22T19:40:32.057Z,8.99
2017-12-22T19:41:31.975Z,8.99
2017-12-22T19:42:32.066Z,8.99
2017-12-22T19:43:33.055Z,8.97
2017-12-22T19:44:32.076Z,8.99
2017-12-22T19:45:32.004Z,8.97
2017-12-22T19:46:31.992Z,8.99
2017-12-22T19:47:32.105Z,8.97
2017-12-22T19:48:32.034Z,8.97
2017-12-22T19:49:32.120Z,8.97
2017-12-22T19:50:32.014Z,8.97
2017-12-22T19:51:32.023Z,8.95
2017-12-22T19:52:32.047Z,8.95
2017-12-22T19:53:32.023Z,8.95
2017-12-22T19:54:32.043Z,8.94
2017-12-22T19:55:32.026Z,8.95
2017-12-22T19:56:32.036Z,8.95
2017-12-22T19:57:32.039Z,8.95
2017-12-22T19:58:32.088Z,8.94
2017-12-22T19:59:32.047Z,8.95
2017-12-22T20:00:32.048Z,8.94
2017-12-22T20:01:32.057Z,8.94
2017-12-22T20:02:32.103Z,8.94
2017-12-22T20:03:32.066Z,8.92
2017-12-22T20:04:32.121Z,8.94
2017-12-22T20:05:32.085Z,8.94
2017-12-22T20:06:32.094Z,8.94
2017-12-22T20:07:32.066Z,8.92
2017-12-22T20:08:32.079Z,8.92
2017-12-22T20:09:32.075Z,8.92
2017-12-22T20:10:32.158Z,8.92
2017-12-22T20:11:32.087Z,8.92
2017-12-22T20:12:32.092Z,8.91
2017-12-22T20:13:32.166Z,8.91
2017-12-22T20:14:32.092Z,8.91
2017-12-22T20:15:32.202Z,8.91
2017-12-22T20:16:32.103Z,8.91
2017-12-22T20:17:32.202Z,8.92
2017-12-22T20:18:32.110Z,8.91
2017-12-22T20:19:32.213Z,8.91
2017-12-22T20:20:32.114Z,8.89
2017-12-22T20:21:32.216Z,8.89
2017-12-22T20:22:32.117Z,8.89
2017-12-22T20:23:32.136Z,8.89
2017-12-22T20:24:32.264Z,8.89
2017-12-22T20:25:32.137Z,8.88
2017-12-22T20:26:33.184Z,8.89
2017-12-22T20:27:32.138Z,8.89
2017-12-22T20:28:33.195Z,8.88
2017-12-22T20:29:32.160Z,8.88
2017-12-22T20:30:32.182Z,8.88
2017-12-22T20:31:32.164Z,8.88
2017-12-22T20:32:32.208Z,8.87
2017-12-22T20:33:32.161Z,8.87
2017-12-22T20:34:32.209Z,8.87
2017-12-22T20:35:32.171Z,8.88
2017-12-22T20:36:32.184Z,8.87
2017-12-22T20:37:32.184Z,8.85
2017-12-22T20:38:32.191Z,8.85
2017-12-22T20:39:32.284Z,8.85
2017-12-22T20:40:32.192Z,8.85
2017-12-22T20:41:32.214Z,8.85
2017-12-22T20:42:32.188Z,8.85
2017-12-22T20:43:32.196Z,8.85
2017-12-22T20:44:32.203Z,8.85
2017-12-22T20:45:32.286Z,8.85
2017-12-22T20:46:32.208Z,8.85
2017-12-22T20:47:32.295Z,8.85
2017-12-22T20:48:32.221Z,8.84
2017-12-22T20:49:32.227Z,8.84
2017-12-22T20:50:32.248Z,8.85
2017-12-22T20:51:32.219Z,8.82
2017-12-22T20:52:32.227Z,8.84
2017-12-22T20:53:32.249Z,8.82
2017-12-22T20:54:32.302Z,8.82
2017-12-22T20:55:32.238Z,8.85
2017-12-22T20:56:32.313Z,8.84
2017-12-22T20:57:32.253Z,8.84
2017-12-22T20:58:33.343Z,8.82
2017-12-22T20:59:32.258Z,8.84
2017-12-22T21:00:33.376Z,8.84
2017-12-22T21:01:32.273Z,8.84
2017-12-22T21:02:37.266Z,8.84
2017-12-22T21:03:32.267Z,8.82
2017-12-22T21:04:33.409Z,8.82
2017-12-22T21:05:32.275Z,8.82
2017-12-22T21:06:33.302Z,8.81
2017-12-22T21:07:32.284Z,8.82
2017-12-22T21:08:45.298Z,8.82
2017-12-22T21:09:32.300Z,8.82
2017-12-22T21:10:39.269Z,8.82
2017-12-22T21:11:32.292Z,8.82
2017-12-22T21:12:32.313Z,8.81
2017-12-22T21:13:32.298Z,8.81
2017-12-22T21:14:45.331Z,8.81
2017-12-22T21:15:32.306Z,8.81
2017-12-22T21:16:38.278Z,8.81
2017-12-22T21:17:32.315Z,8.79
2017-12-22T21:18:33.378Z,8.81
2017-12-22T21:19:32.324Z,8.79
2017-12-22T21:21:09.333Z,8.81
2017-12-22T21:21:32.336Z,8.79
2017-12-22T21:22:32.342Z,8.78
2017-12-22T21:23:39.247Z,8.78
2017-12-22T21:24:32.351Z,8.78
2017-12-22T21:25:34.476Z,8.79
2017-12-22T21:26:32.345Z,8.79
2017-12-22T21:28:01.316Z,8.78
2017-12-22T21:28:32.366Z,8.79
2017-12-22T21:29:47.278Z,8.79
2017-12-22T21:30:32.369Z,8.78
2017-12-22T21:31:33.495Z,8.78
2017-12-22T21:32:32.366Z,8.78
2017-12-22T21:33:33.484Z,8.76
2017-12-22T21:34:32.380Z,8.78
2017-12-22T21:35:33.493Z,8.78
2017-12-22T21:36:32.382Z,8.78
2017-12-22T21:37:53.511Z,8.78
2017-12-22T21:38:32.386Z,8.76
2017-12-22T21:40:10.280Z,8.76
2017-12-22T21:40:32.397Z,8.76
2017-12-22T21:41:32.409Z,8.78
2017-12-22T21:42:44.291Z,8.78
2017-12-22T21:43:32.399Z,8.76
2017-12-22T21:44:33.449Z,8.78
2017-12-22T21:45:32.433Z,8.76
2017-12-22T21:46:33.461Z,8.76
2017-12-22T21:47:32.421Z,8.74
2017-12-22T21:48:37.331Z,8.76
2017-12-22T21:49:32.421Z,8.76
2017-12-22T21:50:34.470Z,8.74
2017-12-22T21:51:32.430Z,8.76
2017-12-22T21:52:33.460Z,8.74
2017-12-22T21:53:32.438Z,8.74
2017-12-22T21:54:33.480Z,8.76
2017-12-22T21:55:32.445Z,8.74
2017-12-22T21:56:33.509Z,8.74
2017-12-22T21:57:32.453Z,8.74
2017-12-22T21:58:34.532Z,8.74
2017-12-22T21:59:32.454Z,8.76
2017-12-22T22:27:08.498Z,8.70
2017-12-22T22:28:08.530Z,8.71
2017-12-22T22:29:08.485Z,8.70
2017-12-22T22:30:08.490Z,8.71
2017-12-22T22:31:09.563Z,8.70
2017-12-22T22:32:08.494Z,8.70
2017-12-22T22:33:20.516Z,8.70
2017-12-22T22:34:08.498Z,8.71
2017-12-22T22:35:09.575Z,8.70
2017-12-22T22:36:08.512Z,8.69
2017-12-22T22:37:10.606Z,8.69
2017-12-22T22:38:08.526Z,8.69
2017-12-22T22:39:09.605Z,8.69
2017-12-22T22:40:08.525Z,8.69
2017-12-22T22:41:08.589Z,8.69
2017-12-22T22:42:08.541Z,8.69
2017-12-22T22:43:08.530Z,8.67
2017-12-22T22:44:09.634Z,8.69
2017-12-22T22:45:08.538Z,8.69
2017-12-22T22:46:29.557Z,8.69
2017-12-22T22:47:08.558Z,8.69
2017-12-22T22:48:24.524Z,8.67
2017-12-22T22:49:08.555Z,8.69
2017-12-22T22:50:13.462Z,8.67
2017-12-22T22:51:08.557Z,8.69
2017-12-22T22:52:08.663Z,8.67
2017-12-22T22:53:08.577Z,8.69
2017-12-22T22:54:13.489Z,8.67